createdAt,value
2022-11-28T00:03:24.947Z,58.75
2022-11-28T00:07:27.819Z,58.71
2022-11-28T00:11:28.068Z,58.91
2022-11-28T00:15:28.147Z,59.14
2022-11-28T00:19:29.162Z,59.62
2022-11-28T00:23:33.261Z,59.25
2022-11-28T00:27:33.299Z,58.61
2022-11-28T00:31:36.441Z,59.21
2022-11-28T00:35:36.549Z,59.42
2022-11-28T00:39:39.225Z,59.01
2022-11-28T00:43:40.435Z,59.40
2022-11-28T00:47:40.836Z,58.92
2022-11-28T00:51:41.330Z,58.86
2022-11-28T00:55:44.820Z,58.60
2022-11-28T00:59:44.905Z,58.53
2022-11-28T01:03:48.365Z,58.90
2022-11-28T01:07:48.471Z,58.75
2022-11-28T01:11:55.248Z,58.12
2022-11-28T01:15:55.460Z,58.15
2022-11-28T01:19:55.682Z,58.47
2022-11-28T01:23:56.001Z,58.23
2022-11-28T01:27:58.762Z,57.72
2022-11-28T01:31:59.069Z,57.24
2022-11-28T01:36:00.852Z,57.40
2022-11-28T01:40:00.910Z,57.79
2022-11-28T01:44:12.019Z,57.24
2022-11-28T01:48:18.605Z,57.33
2022-11-28T01:52:23.210Z,57.62
2022-11-28T01:56:29.567Z,57.53
2022-11-28T02:00:34.775Z,58.45
2022-11-28T02:04:37.092Z,58.40
2022-11-28T02:08:39.886Z,58.33
2022-11-28T02:13:05.835Z,58.24
2022-11-28T02:17:23.596Z,57.77
2022-11-28T02:21:52.192Z,57.63
2022-11-28T02:26:23.789Z,57.81
2022-11-28T02:30:28.957Z,57.96
2022-11-28T02:34:47.143Z,58.17
2022-11-28T02:39:07.374Z,58.05
2022-11-28T02:43:17.776Z,58.26
2022-11-28T02:47:28.652Z,57.96
2022-11-28T02:51:40.250Z,58.50
2022-11-28T02:55:43.489Z,58.02
2022-11-28T02:59:53.334Z,58.00
2022-11-28T03:04:27.801Z,58.30
2022-11-28T03:08:48.483Z,57.93
2022-11-28T03:13:00.036Z,58.48
2022-11-28T03:17:16.111Z,57.97
2022-11-28T03:21:28.724Z,57.81
2022-11-28T03:25:40.481Z,57.36
2022-11-28T03:29:46.058Z,56.92
2022-11-28T03:33:51.926Z,57.28
2022-11-28T03:37:57.719Z,56.80
2022-11-28T03:42:07.737Z,57.22
2022-11-28T03:46:14.320Z,57.29
2022-11-28T03:50:21.298Z,57.43
2022-11-28T03:54:31.223Z,57.59
2022-11-28T03:58:40.642Z,57.57
2022-11-28T04:02:51.270Z,57.81
2022-11-28T04:07:00.445Z,57.75
2022-11-28T04:11:11.744Z,57.18
2022-11-28T04:15:22.378Z,57.47
2022-11-28T04:19:33.727Z,57.87
2022-11-28T04:23:38.262Z,58.09
2022-11-28T04:27:43.132Z,58.32
2022-11-28T04:31:49.403Z,58.62
2022-11-28T04:35:54.443Z,58.76
2022-11-28T04:39:59.387Z,58.76
2022-11-28T04:44:07.792Z,58.83
2022-11-28T04:48:10.771Z,58.30
2022-11-28T04:52:20.659Z,58.74
2022-11-28T04:56:27.556Z,58.23
2022-11-28T05:00:29.909Z,57.56
2022-11-28T05:04:33.169Z,57.58
2022-11-28T05:08:33.397Z,58.05
2022-11-28T05:12:33.425Z,58.23
2022-11-28T05:16:33.766Z,57.32
2022-11-28T05:20:36.830Z,57.59
2022-11-28T05:24:37.266Z,57.51
2022-11-28T05:28:37.601Z,57.51
2022-11-28T05:32:37.705Z,57.67
2022-11-28T05:36:40.484Z,57.40
2022-11-28T05:40:44.242Z,57.27
2022-11-28T05:44:44.454Z,58.51
2022-11-28T05:48:44.589Z,57.91
2022-11-28T05:52:47.291Z,58.87
2022-11-28T05:56:47.838Z,58.84
2022-11-28T06:00:47.871Z,59.19
2022-11-28T06:04:48.052Z,58.84
2022-11-28T06:08:53.534Z,57.43
2022-11-28T06:12:53.580Z,57.38
2022-11-28T06:16:53.905Z,57.19
2022-11-28T06:20:54.401Z,56.89
2022-11-28T06:24:57.048Z,57.74
2022-11-28T06:28:58.306Z,58.08
2022-11-28T06:32:58.342Z,58.71
2022-11-28T06:36:58.487Z,59.50
2022-11-28T06:41:06.328Z,58.69
2022-11-28T06:45:07.793Z,59.04
2022-11-28T06:49:07.904Z,57.94
2022-11-28T06:53:07.995Z,57.26
2022-11-28T06:57:10.755Z,56.46
2022-11-28T07:01:14.196Z,56.67
2022-11-28T07:05:16.594Z,56.41
2022-11-28T07:09:16.885Z,56.32
2022-11-28T07:13:19.875Z,56.11
2022-11-28T07:17:19.994Z,56.59
2022-11-28T07:21:21.031Z,56.61
2022-11-28T07:25:21.384Z,55.78
2022-11-28T07:29:27.508Z,56.01
2022-11-28T07:33:27.706Z,55.49
2022-11-28T07:37:27.931Z,55.53
2022-11-28T07:41:29.359Z,55.59
2022-11-28T07:45:58.902Z,55.35
2022-11-28T07:49:56.157Z,54.84
2022-11-28T07:53:56.654Z,54.20
2022-11-28T07:57:56.951Z,54.61
2022-11-28T08:01:59.771Z,54.32
2022-11-28T08:06:04.356Z,54.09
2022-11-28T08:10:04.856Z,53.83
2022-11-28T08:14:06.911Z,53.78
2022-11-28T08:18:13.087Z,53.21
2022-11-28T08:22:13.210Z,53.02
2022-11-28T08:26:16.632Z,52.91
2022-11-28T08:30:17.879Z,52.44
2022-11-28T08:34:20.687Z,52.61
2022-11-28T08:38:21.049Z,52.49
2022-11-28T08:42:21.145Z,52.82
2022-11-28T08:46:24.448Z,53.18
2022-11-28T08:50:30.245Z,53.78
2022-11-28T08:54:30.333Z,54.48
2022-11-28T08:58:30.427Z,54.10
2022-11-28T09:02:30.533Z,53.49
2022-11-28T09:06:33.239Z,53.82
2022-11-28T09:10:33.349Z,53.76
2022-11-28T09:14:33.561Z,53.91
2022-11-28T09:18:34.481Z,53.14
2022-11-28T09:22:37.779Z,52.62
2022-11-28T09:26:38.066Z,52.59
2022-11-28T09:30:38.749Z,52.94
2022-11-28T09:34:39.220Z,52.36
2022-11-28T09:38:43.364Z,52.17
2022-11-28T09:42:47.028Z,51.70
2022-11-28T09:46:51.675Z,51.34
2022-11-28T09:50:59.090Z,52.08
2022-11-28T09:55:17.860Z,51.46
2022-11-28T09:59:27.347Z,50.33
2022-11-28T10:03:47.221Z,49.20
2022-11-28T10:08:06.858Z,49.00
2022-11-28T10:12:35.039Z,48.72
2022-11-28T10:16:50.205Z,48.29
2022-11-28T10:20:56.499Z,48.79
2022-11-28T10:25:03.393Z,48.80
2022-11-28T10:29:22.107Z,48.94
2022-11-28T10:33:31.602Z,48.11
2022-11-28T10:37:35.216Z,48.69
2022-11-28T10:41:43.143Z,48.96
2022-11-28T10:45:57.958Z,49.50
2022-11-28T10:50:07.015Z,49.21
2022-11-28T10:54:26.170Z,48.11
2022-11-28T10:58:35.506Z,48.91
2022-11-28T11:02:45.705Z,48.89
2022-11-28T11:07:06.921Z,49.06
2022-11-28T11:11:14.553Z,48.97
2022-11-28T11:15:26.529Z,48.00
2022-11-28T11:19:34.140Z,49.61
2022-11-28T11:23:38.255Z,49.87
2022-11-28T11:27:41.392Z,49.46
2022-11-28T11:31:52.515Z,49.52
2022-11-28T11:35:55.638Z,50.65
2022-11-28T11:39:56.234Z,50.38
2022-11-28T11:43:56.373Z,49.80
2022-11-28T11:47:56.920Z,49.85
2022-11-28T11:52:04.281Z,48.64
2022-11-28T11:56:06.957Z,48.82
2022-11-28T12:00:17.962Z,49.41
2022-11-28T12:04:45.462Z,49.78
2022-11-28T12:08:55.081Z,50.29
2022-11-28T12:12:56.312Z,50.28
2022-11-28T12:22:14.584Z,48.79
2022-11-28T12:26:31.486Z,49.00
2022-11-28T12:30:52.940Z,48.09
2022-11-28T12:35:14.132Z,48.05
2022-11-28T12:39:42.091Z,49.00
2022-11-28T12:44:05.925Z,47.82
2022-11-28T12:48:28.888Z,47.82
2022-11-28T12:52:48.743Z,47.77
2022-11-28T12:57:01.470Z,48.93
2022-11-28T13:01:30.267Z,49.01
2022-11-28T13:06:02.013Z,48.32
2022-11-28T13:10:16.557Z,48.48
2022-11-28T13:14:32.625Z,48.79
2022-11-28T13:18:43.976Z,47.75
2022-11-28T13:23:02.355Z,47.69
2022-11-28T13:27:14.860Z,47.94
2022-11-28T13:31:25.937Z,47.61
2022-11-28T13:35:31.921Z,48.63
2022-11-28T13:39:42.285Z,49.16
2022-11-28T13:43:53.509Z,48.98
2022-11-28T13:47:55.712Z,48.97
2022-11-28T13:52:45.476Z,49.12
2022-11-28T13:56:47.864Z,49.68
2022-11-28T14:01:09.774Z,49.77
2022-11-28T14:05:31.159Z,49.27
2022-11-28T14:09:53.471Z,50.95
2022-11-28T14:14:27.512Z,50.26
2022-11-28T14:18:56.808Z,50.17
2022-11-28T14:23:21.892Z,50.62
2022-11-28T14:27:30.921Z,50.63
2022-11-28T14:31:37.361Z,51.21
2022-11-28T14:36:25.099Z,51.01
2022-11-28T14:41:11.887Z,51.04
2022-11-28T14:45:52.626Z,51.03
2022-11-28T14:50:28.096Z,51.03
2022-11-28T14:54:32.474Z,51.49
2022-11-28T14:58:32.655Z,51.67
2022-11-28T15:03:15.191Z,51.95
2022-11-28T15:07:31.653Z,52.38
2022-11-28T15:11:58.881Z,52.64
2022-11-28T15:16:00.207Z,53.00
2022-11-28T15:20:10.669Z,53.31
2022-11-28T15:24:28.950Z,53.21
2022-11-28T15:28:32.543Z,53.28
2022-11-28T15:32:34.726Z,53.19
2022-11-28T15:36:46.486Z,53.63
2022-11-28T15:40:55.269Z,53.10
2022-11-28T15:45:14.453Z,53.39
2022-11-28T15:49:32.067Z,52.27
2022-11-28T15:53:35.815Z,52.44
2022-11-28T15:57:36.548Z,52.29
2022-11-28T16:01:37.485Z,52.66
2022-11-28T16:05:37.762Z,52.50
2022-11-28T16:09:40.720Z,53.49
2022-11-28T16:13:43.947Z,53.24
2022-11-28T16:17:44.745Z,53.70
2022-11-28T16:21:56.790Z,53.97
2022-11-28T16:26:09.391Z,54.18
2022-11-28T16:30:39.108Z,54.76
2022-11-28T16:34:50.874Z,54.84
2022-11-28T16:38:54.549Z,54.70
2022-11-28T16:43:02.979Z,54.28
2022-11-28T16:47:04.410Z,54.98
2022-11-28T16:51:41.653Z,54.73
2022-11-28T16:55:47.393Z,55.26
2022-11-28T16:59:52.090Z,55.01
2022-11-28T17:03:55.559Z,54.82
2022-11-28T17:07:56.738Z,55.44
2022-11-28T17:12:02.127Z,55.48
2022-11-28T17:16:04.775Z,55.33
2022-11-28T17:20:05.560Z,55.40
2022-11-28T17:24:06.359Z,56.21
2022-11-28T17:28:06.779Z,56.25
2022-11-28T17:32:12.283Z,56.03
2022-11-28T17:36:14.450Z,56.17
2022-11-28T17:40:27.560Z,56.17
2022-11-28T17:44:31.856Z,56.29
2022-11-28T17:48:35.700Z,56.61
2022-11-28T17:52:35.807Z,56.21
2022-11-28T17:56:36.119Z,56.49
2022-11-28T18:00:36.383Z,56.78
2022-11-28T18:04:40.471Z,56.14
2022-11-28T18:08:41.237Z,56.53
2022-11-28T18:12:41.516Z,56.31
2022-11-28T18:16:43.995Z,56.46
2022-11-28T18:20:47.132Z,56.63
2022-11-28T18:24:47.804Z,56.37
2022-11-28T18:28:48.180Z,56.83
2022-11-28T18:32:48.674Z,56.56
2022-11-28T18:36:58.432Z,56.34
2022-11-28T18:41:07.958Z,55.83
2022-11-28T18:45:09.876Z,55.79
2022-11-28T18:49:10.712Z,55.44
2022-11-28T18:53:13.647Z,55.55
2022-11-28T18:57:14.536Z,56.01
2022-11-28T19:01:17.377Z,56.10
2022-11-28T19:05:17.812Z,56.50
2022-11-28T19:09:22.314Z,57.20
2022-11-28T19:13:22.498Z,56.93
2022-11-28T19:17:22.642Z,57.90
2022-11-28T19:21:28.346Z,57.69
2022-11-28T19:25:32.550Z,57.16
2022-11-28T19:29:32.711Z,57.33
2022-11-28T19:33:32.926Z,57.16
2022-11-28T19:37:33.611Z,57.71
2022-11-28T19:41:37.084Z,57.85
2022-11-28T19:45:37.218Z,57.93
2022-11-28T19:49:38.269Z,57.92
2022-11-28T19:53:40.955Z,57.72
2022-11-28T19:57:43.885Z,57.32
2022-11-28T20:01:44.516Z,57.85
2022-11-28T20:05:46.237Z,57.27
2022-11-28T20:09:47.015Z,56.88
2022-11-28T20:13:51.750Z,57.16
2022-11-28T20:17:52.365Z,57.63
2022-11-28T20:21:52.818Z,58.07
2022-11-28T20:25:53.646Z,57.48
2022-11-28T20:29:56.435Z,57.33
2022-11-28T20:33:57.481Z,56.83
2022-11-28T20:37:57.814Z,57.38
2022-11-28T20:41:57.949Z,57.33
2022-11-28T20:46:05.881Z,57.65
2022-11-28T20:50:06.556Z,57.55
2022-11-28T20:54:08.860Z,57.23
2022-11-28T20:58:09.006Z,57.18
2022-11-28T21:02:13.992Z,57.61
2022-11-28T21:06:14.623Z,57.43
2022-11-28T21:10:14.830Z,57.37
2022-11-28T21:14:15.274Z,57.06
2022-11-28T21:18:18.932Z,57.56
2022-11-28T21:22:19.041Z,57.93
2022-11-28T21:26:28.798Z,57.52
2022-11-28T21:30:30.447Z,57.72
2022-11-28T21:34:33.904Z,57.28
2022-11-28T21:38:34.552Z,57.31
2022-11-28T21:42:35.181Z,57.03
2022-11-28T21:46:35.330Z,56.69
2022-11-28T21:50:38.115Z,56.44
2022-11-28T21:54:38.148Z,56.44
2022-11-28T21:58:38.598Z,56.98
2022-11-28T22:02:38.773Z,56.95
2022-11-28T22:06:41.918Z,57.11
2022-11-28T22:10:42.012Z,57.61
2022-11-28T22:14:42.223Z,57.57
2022-11-28T22:18:42.341Z,58.01
2022-11-28T22:22:45.023Z,58.12
2022-11-28T22:26:46.214Z,57.96
2022-11-28T22:30:46.576Z,58.26
2022-11-28T22:34:47.266Z,58.34
2022-11-28T22:38:52.976Z,58.31
2022-11-28T22:42:59.747Z,58.47
2022-11-28T22:47:00.052Z,58.17
2022-11-28T22:51:00.464Z,57.61
2022-11-28T22:55:03.247Z,57.67
2022-11-28T22:59:05.113Z,57.46
2022-11-28T23:03:06.429Z,57.66
2022-11-28T23:07:06.887Z,57.63
2022-11-28T23:11:15.687Z,57.55
2022-11-28T23:15:16.503Z,57.48
2022-11-28T23:19:20.007Z,57.74
2022-11-28T23:23:20.101Z,57.76
2022-11-28T23:27:22.806Z,57.85
2022-11-28T23:31:26.853Z,57.38
2022-11-28T23:35:28.005Z,57.38
2022-11-28T23:39:28.798Z,57.42
2022-11-28T23:43:39.372Z,57.37
2022-11-28T23:47:39.470Z,57.34
2022-11-28T23:51:40.136Z,57.14
2022-11-28T23:55:40.307Z,57.69
2022-11-28T23:59:42.965Z,57.22
